63 Max
36 km/h
11 Mini

LFMY 151430Z AUTO 33010KT 270V360 CAVOK 16/M01 Q1017 NOSIG

TAF LFMY 151400Z 1515/1615 25010KT CAVOK TX15/1613Z TN02/1605Z BECMG 1520/1522 VRB02KT BECMG 1608/1610 30010KT